Time;durP1;ratioP1;P1;durP2;ratioP2;P2;SDS_P1;SDS_P2;PMS_P1;PMS_P2;Temp;Humidity;BMP_temperature;BMP_pressure;BME280_temperature;BME280_humidity;BME280_pressure;Samples;Min_cycle;Max_cycle;Signal;HPM_P1;HPM_P2
2022/03/30 00:01:17;;;;;;;6.22;1.70;;;;;;;;;;4936677;29;20195;-63
2022/03/30 00:03:43;;;;;;;6.28;1.58;;;;;;;;;;4936883;29;20602;-63
2022/03/30 00:06:09;;;;;;;5.72;1.50;;;;;;;;;;4936535;29;20609;-62
2022/03/30 00:08:35;;;;;;;5.47;1.73;;;;;;;;;;4936502;29;20176;-63
2022/03/30 00:11:01;;;;;;;6.15;1.58;;;;;;;;;;4936556;29;20196;-63
2022/03/30 00:13:27;;;;;;;7.93;1.70;;;;;;;;;;4936295;29;20173;-63
2022/03/30 00:15:53;;;;;;;6.50;2.17;;;;;;;;;;4936395;29;20617;-63
2022/03/30 00:18:19;;;;;;;10.07;1.80;;;;;;;;;;4936243;29;20277;-63
2022/03/30 00:20:45;;;;;;;5.80;1.73;;;;;;;;;;4936323;29;20204;-63
2022/03/30 00:23:11;;;;;;;4.00;1.55;;;;;;;;;;4936591;29;20509;-63
2022/03/30 00:25:37;;;;;;;2.97;1.58;;;;;;;;;;4936322;29;20179;-63
2022/03/30 00:28:04;;;;;;;4.82;1.80;;;;;;;;;;4936322;29;20183;-63
2022/03/30 00:30:30;;;;;;;4.50;1.60;;;;;;;;;;4936620;29;20188;-63
2022/03/30 00:32:56;;;;;;;5.25;2.05;;;;;;;;;;4936173;29;20173;-63
2022/03/30 00:35:22;;;;;;;2.83;1.75;;;;;;;;;;4936514;29;20172;-63
2022/03/30 00:37:48;;;;;;;4.43;1.75;;;;;;;;;;4936457;29;20503;-63
2022/03/30 00:40:16;;;;;;;6.88;1.52;;;;;;;;;;4936157;29;20197;-63
2022/03/30 00:42:41;;;;;;;4.00;1.70;;;;;;;;;;4936421;29;20594;-63
2022/03/30 00:45:13;;;;;;;4.07;1.67;;;;;;;;;;4936139;29;20172;-63
2022/03/30 00:47:40;;;;;;;2.25;1.20;;;;;;;;;;4936093;29;20590;-63
2022/03/30 00:50:06;;;;;;;6.85;1.73;;;;;;;;;;4936190;29;20165;-63
2022/03/30 00:52:32;;;;;;;9.70;2.17;;;;;;;;;;4935994;29;20184;-63
2022/03/30 00:54:59;;;;;;;4.57;2.22;;;;;;;;;;4936055;29;20264;-63
2022/03/30 00:57:25;;;;;;;3.65;1.20;;;;;;;;;;4936049;29;20563;-63
2022/03/30 00:59:51;;;;;;;3.70;1.33;;;;;;;;;;4936000;29;20192;-63
2022/03/30 01:02:17;;;;;;;3.65;1.48;;;;;;;;;;4935990;29;20180;-63
2022/03/30 01:04:46;;;;;;;6.85;1.67;;;;;;;;;;4937083;29;20248;-63
2022/03/30 01:07:13;;;;;;;3.47;1.40;;;;;;;;;;4939609;29;20629;-63
2022/03/30 01:09:39;;;;;;;3.90;1.38;;;;;;;;;;4939632;29;20196;-63
2022/03/30 01:12:05;;;;;;;5.45;1.40;;;;;;;;;;4939677;29;20583;-63
2022/03/30 01:14:31;;;;;;;4.82;1.52;;;;;;;;;;4939730;29;20474;-63
2022/03/30 01:16:58;;;;;;;6.40;1.52;;;;;;;;;;4939844;29;20188;-62
2022/03/30 01:19:28;;;;;;;5.28;1.58;;;;;;;;;;4939492;29;20231;-63
2022/03/30 01:21:54;;;;;;;3.00;1.13;;;;;;;;;;4939542;29;20271;-63
2022/03/30 01:24:20;;;;;;;2.20;1.30;;;;;;;;;;4939364;29;20213;-63
2022/03/30 01:26:46;;;;;;;6.40;1.63;;;;;;;;;;4939556;29;20223;-63
2022/03/30 01:34:43;;;;;;;3.67;1.48;;;;;;;;;;4939461;29;20220;-63
2022/03/30 01:37:09;;;;;;;3.20;1.15;;;;;;;;;;4939175;29;20192;-63
2022/03/30 01:39:35;;;;;;;3.20;1.42;;;;;;;;;;4938994;29;20605;-64
2022/03/30 01:42:01;;;;;;;1.52;1.13;;;;;;;;;;4939338;29;20192;-63
2022/03/30 01:44:28;;;;;;;3.70;1.15;;;;;;;;;;4939049;29;20473;-62
2022/03/30 01:46:54;;;;;;;6.55;1.88;;;;;;;;;;4939100;29;20184;-63
2022/03/30 01:49:21;;;;;;;3.33;1.27;;;;;;;;;;4939337;29;20165;-63
2022/03/30 01:51:50;;;;;;;5.10;1.13;;;;;;;;;;4939494;29;20479;-63
2022/03/30 01:54:17;;;;;;;4.22;1.50;;;;;;;;;;4939431;29;20263;-63
2022/03/30 01:56:43;;;;;;;4.22;1.30;;;;;;;;;;4939157;29;20185;-63
2022/03/30 01:59:08;;;;;;;2.67;1.20;;;;;;;;;;4938665;29;20592;-63
2022/03/30 02:01:34;;;;;;;1.88;0.95;;;;;;;;;;4938670;29;20197;-64
2022/03/30 02:04:00;;;;;;;5.25;1.85;;;;;;;;;;4938801;29;20574;-64
2022/03/30 02:06:26;;;;;;;4.68;1.35;;;;;;;;;;4938782;29;20181;-63
2022/03/30 02:08:52;;;;;;;2.95;1.10;;;;;;;;;;4938653;29;20184;-64
2022/03/30 02:11:18;;;;;;;3.83;1.30;;;;;;;;;;4938529;29;20557;-64
2022/03/30 02:13:44;;;;;;;5.40;1.02;;;;;;;;;;4938260;29;20446;-64
2022/03/30 02:16:10;;;;;;;3.33;1.10;;;;;;;;;;4937905;29;20173;-64
2022/03/30 02:18:36;;;;;;;4.38;1.17;;;;;;;;;;4938400;29;20165;-64
2022/03/30 02:21:02;;;;;;;4.63;1.38;;;;;;;;;;4938397;29;20551;-64
2022/03/30 02:23:28;;;;;;;2.40;1.15;;;;;;;;;;4938251;29;20190;-64
2022/03/30 02:25:54;;;;;;;4.03;1.30;;;;;;;;;;4938568;29;20169;-64
2022/03/30 02:28:20;;;;;;;4.18;1.08;;;;;;;;;;4938424;29;20521;-63
2022/03/30 02:30:47;;;;;;;4.30;1.13;;;;;;;;;;4938295;29;20308;-63
2022/03/30 02:33:13;;;;;;;5.30;1.17;;;;;;;;;;4938523;29;20232;-63
2022/03/30 02:35:39;;;;;;;1.73;1.08;;;;;;;;;;4938087;29;20660;-63
2022/03/30 02:38:05;;;;;;;4.40;1.58;;;;;;;;;;4938124;29;20177;-63
2022/03/30 02:40:31;;;;;;;4.80;1.30;;;;;;;;;;4936928;29;20669;-63
2022/03/30 02:42:57;;;;;;;2.33;1.23;;;;;;;;;;4938174;29;20183;-63
2022/03/30 02:45:23;;;;;;;2.38;1.20;;;;;;;;;;4937958;29;20173;-63
2022/03/30 02:50:33;;;;;;;3.08;1.30;;;;;;;;;;4937853;29;20212;-64
2022/03/30 02:52:59;;;;;;;2.67;1.10;;;;;;;;;;4937775;29;20177;-63
2022/03/30 02:55:25;;;;;;;2.92;1.30;;;;;;;;;;4937714;29;20173;-64
2022/03/30 02:57:51;;;;;;;2.97;1.13;;;;;;;;;;4937664;29;20613;-64
2022/03/30 03:00:17;;;;;;;3.65;1.30;;;;;;;;;;4937407;29;20223;-64
2022/03/30 03:02:43;;;;;;;2.00;1.15;;;;;;;;;;4937771;29;20196;-64
2022/03/30 03:05:09;;;;;;;6.55;1.30;;;;;;;;;;4937787;29;20180;-63
2022/03/30 03:07:35;;;;;;;2.78;1.30;;;;;;;;;;4937531;29;20597;-64
2022/03/30 03:10:01;;;;;;;3.72;1.30;;;;;;;;;;4937426;29;20169;-64
2022/03/30 03:12:27;;;;;;;3.22;1.35;;;;;;;;;;4937632;29;20260;-63
2022/03/30 03:14:53;;;;;;;3.92;1.38;;;;;;;;;;4937326;29;20252;-64
2022/03/30 03:17:20;;;;;;;5.35;1.77;;;;;;;;;;4937352;29;20639;-63
2022/03/30 03:19:46;;;;;;;2.35;1.10;;;;;;;;;;4937305;29;20216;-64
2022/03/30 03:22:12;;;;;;;2.50;1.35;;;;;;;;;;4937343;29;20180;-64
2022/03/30 03:24:38;;;;;;;2.38;1.40;;;;;;;;;;4937099;29;20169;-63
2022/03/30 03:27:04;;;;;;;4.20;1.35;;;;;;;;;;4936431;29;20594;-63
2022/03/30 03:29:30;;;;;;;2.15;1.25;;;;;;;;;;4937359;29;20176;-64
2022/03/30 03:31:56;;;;;;;4.05;1.30;;;;;;;;;;4937321;29;20672;-64
2022/03/30 03:34:22;;;;;;;4.60;1.33;;;;;;;;;;4937203;29;20172;-64
2022/03/30 03:36:48;;;;;;;3.05;1.30;;;;;;;;;;4936975;29;20196;-63
2022/03/30 03:39:14;;;;;;;3.20;1.20;;;;;;;;;;4936895;29;20195;-63
2022/03/30 03:41:40;;;;;;;3.40;1.42;;;;;;;;;;4936879;29;20625;-63
2022/03/30 03:44:06;;;;;;;4.85;1.10;;;;;;;;;;4936828;29;20192;-64
2022/03/30 03:46:32;;;;;;;3.95;1.30;;;;;;;;;;4936787;29;20550;-63
2022/03/30 03:48:58;;;;;;;3.88;1.40;;;;;;;;;;4936722;29;20168;-63
2022/03/30 03:51:24;;;;;;;2.53;1.48;;;;;;;;;;4936627;29;20557;-63
2022/03/30 03:53:50;;;;;;;3.63;1.13;;;;;;;;;;4936927;29;20169;-64
2022/03/30 03:56:16;;;;;;;4.80;1.17;;;;;;;;;;4936649;29;20516;-63
2022/03/30 03:58:42;;;;;;;4.03;1.25;;;;;;;;;;4936682;29;20176;-64
2022/03/30 04:01:07;;;;;;;3.38;1.15;;;;;;;;;;4936516;29;20240;-63
2022/03/30 04:03:33;;;;;;;3.63;1.38;;;;;;;;;;4936877;29;20185;-64
2022/03/30 04:05:59;;;;;;;1.42;1.10;;;;;;;;;;4936460;29;20165;-64
2022/03/30 04:08:25;;;;;;;5.05;1.60;;;;;;;;;;4936711;29;20255;-63
2022/03/30 04:10:51;;;;;;;3.10;1.13;;;;;;;;;;4936486;29;20220;-62
2022/03/30 04:13:17;;;;;;;10.13;1.50;;;;;;;;;;4936593;29;20200;-63
2022/03/30 04:15:43;;;;;;;3.90;1.33;;;;;;;;;;4936589;29;20172;-63
2022/03/30 04:18:09;;;;;;;5.22;1.50;;;;;;;;;;4936196;29;20184;-63
2022/03/30 04:20:37;;;;;;;2.38;1.20;;;;;;;;;;4936303;29;20259;-63
2022/03/30 04:23:03;;;;;;;2.45;1.30;;;;;;;;;;4936648;29;20341;-63
2022/03/30 04:25:28;;;;;;;5.15;1.40;;;;;;;;;;4936657;29;20216;-63
2022/03/30 04:27:55;;;;;;;7.78;2.15;;;;;;;;;;4936517;29;20164;-62
2022/03/30 04:30:22;;;;;;;5.63;1.38;;;;;;;;;;4936399;29;20276;-63
2022/03/30 04:32:47;;;;;;;2.72;1.40;;;;;;;;;;4936500;29;20231;-63
2022/03/30 04:35:17;;;;;;;3.05;1.45;;;;;;;;;;4936228;29;20185;-63
2022/03/30 04:37:42;;;;;;;5.28;1.75;;;;;;;;;;4936715;29;20247;-63
2022/03/30 04:40:09;;;;;;;3.53;1.75;;;;;;;;;;4939787;29;20656;-63
2022/03/30 04:42:35;;;;;;;3.90;1.60;;;;;;;;;;4940639;29;20188;-63
2022/03/30 04:45:01;;;;;;;2.35;1.27;;;;;;;;;;4940505;29;20505;-63
2022/03/30 04:47:27;;;;;;;5.43;1.73;;;;;;;;;;4940457;29;20236;-63
2022/03/30 04:49:53;;;;;;;5.60;1.27;;;;;;;;;;4940156;29;20172;-63
2022/03/30 04:52:19;;;;;;;3.58;1.63;;;;;;;;;;4940189;29;20571;-63
2022/03/30 04:54:45;;;;;;;2.78;1.67;;;;;;;;;;4940248;29;20497;-63
2022/03/30 04:57:11;;;;;;;3.65;1.83;;;;;;;;;;4939927;29;20615;-62
2022/03/30 04:59:37;;;;;;;3.35;1.90;;;;;;;;;;4939970;29;20256;-63
2022/03/30 05:02:03;;;;;;;3.75;1.55;;;;;;;;;;4940157;29;20211;-62
2022/03/30 05:04:32;;;;;;;2.65;1.30;;;;;;;;;;4940133;29;20605;-61
2022/03/30 05:06:58;;;;;;;9.32;3.15;;;;;;;;;;4940059;29;20175;-62
2022/03/30 05:09:24;;;;;;;6.18;2.92;;;;;;;;;;4940036;29;20566;-64
2022/03/30 05:11:50;;;;;;;11.15;3.17;;;;;;;;;;4939667;29;20509;-62
2022/03/30 05:14:16;;;;;;;9.35;2.70;;;;;;;;;;4939884;29;20235;-63
2022/03/30 05:16:42;;;;;;;8.55;2.60;;;;;;;;;;4939499;29;20583;-64
2022/03/30 05:19:09;;;;;;;13.10;2.90;;;;;;;;;;4939555;29;20167;-63
2022/03/30 05:21:35;;;;;;;10.30;2.72;;;;;;;;;;4939454;29;20223;-64
2022/03/30 05:24:01;;;;;;;8.93;3.10;;;;;;;;;;4939380;29;20236;-63
2022/03/30 05:26:28;;;;;;;7.80;2.72;;;;;;;;;;4939412;29;20165;-62
2022/03/30 05:28:54;;;;;;;9.70;2.65;;;;;;;;;;4939497;29;20169;-62
2022/03/30 05:31:20;;;;;;;6.65;2.50;;;;;;;;;;4939407;29;20169;-63
2022/03/30 05:33:46;;;;;;;5.90;2.38;;;;;;;;;;4939433;29;20602;-64
2022/03/30 05:36:12;;;;;;;7.45;2.72;;;;;;;;;;4939066;29;20180;-62
2022/03/30 05:38:38;;;;;;;6.82;2.10;;;;;;;;;;4939029;29;20245;-62
2022/03/30 05:41:04;;;;;;;5.82;2.42;;;;;;;;;;4938815;29;20271;-62
2022/03/30 05:43:31;;;;;;;7.38;3.15;;;;;;;;;;4939039;29;20169;-62
2022/03/30 05:45:57;;;;;;;5.60;2.40;;;;;;;;;;4938912;29;20165;-62
2022/03/30 05:48:23;;;;;;;4.70;2.63;;;;;;;;;;4939027;29;20214;-62
2022/03/30 05:50:51;;;;;;;6.35;2.67;;;;;;;;;;4939242;29;20178;-63
2022/03/30 05:53:17;;;;;;;7.50;2.63;;;;;;;;;;4941373;29;20613;-63
2022/03/30 05:55:44;;;;;;;7.32;2.50;;;;;;;;;;4940324;29;20173;-62
2022/03/30 05:58:10;;;;;;;6.20;2.50;;;;;;;;;;4939692;29;20684;-61
2022/03/30 06:00:36;;;;;;;5.55;2.10;;;;;;;;;;4939044;29;20279;-62
2022/03/30 06:03:03;;;;;;;6.25;2.25;;;;;;;;;;4939664;29;20514;-63
2022/03/30 06:05:28;;;;;;;6.63;2.17;;;;;;;;;;4940479;29;20229;-63
2022/03/30 06:07:58;;;;;;;7.65;2.35;;;;;;;;;;4939590;29;20169;-62
2022/03/30 06:10:26;;;;;;;8.23;2.45;;;;;;;;;;4939124;29;20204;-62
2022/03/30 06:12:52;;;;;;;6.57;2.40;;;;;;;;;;4938970;29;20184;-63
2022/03/30 06:15:18;;;;;;;7.13;2.67;;;;;;;;;;4938799;29;20173;-63
2022/03/30 06:17:44;;;;;;;7.25;2.75;;;;;;;;;;4938749;29;20193;-63
2022/03/30 06:20:10;;;;;;;5.78;2.20;;;;;;;;;;4938994;29;20211;-63
2022/03/30 06:22:36;;;;;;;7.43;2.47;;;;;;;;;;4938939;29;20224;-63
2022/03/30 06:25:03;;;;;;;5.28;2.70;;;;;;;;;;4939516;29;20173;-63
2022/03/30 06:27:30;;;;;;;9.00;2.90;;;;;;;;;;4939570;29;20184;-63
2022/03/30 06:29:55;;;;;;;6.65;2.20;;;;;;;;;;4940511;29;20588;-63
2022/03/30 06:32:21;;;;;;;9.18;2.72;;;;;;;;;;4940568;29;20173;-63
2022/03/30 06:34:47;;;;;;;7.80;2.40;;;;;;;;;;4939685;29;20173;-63
2022/03/30 06:37:13;;;;;;;7.78;2.70;;;;;;;;;;4941752;29;20176;-63
2022/03/30 06:39:39;;;;;;;4.72;2.03;;;;;;;;;;4940124;29;20173;-63
2022/03/30 06:42:06;;;;;;;6.60;2.65;;;;;;;;;;4942210;29;20201;-63
2022/03/30 06:44:32;;;;;;;6.15;2.22;;;;;;;;;;4939748;29;20196;-63
2022/03/30 06:46:58;;;;;;;5.05;2.05;;;;;;;;;;4941345;29;20241;-63
2022/03/30 06:49:23;;;;;;;4.35;1.70;;;;;;;;;;4939464;29;20169;-63
2022/03/30 06:51:52;;;;;;;3.85;1.50;;;;;;;;;;4940134;29;20177;-63
2022/03/30 06:54:18;;;;;;;2.20;1.40;;;;;;;;;;4944817;29;20246;-63
2022/03/30 06:56:43;;;;;;;4.85;1.80;;;;;;;;;;4945495;29;20183;-63
2022/03/30 06:59:12;;;;;;;3.28;1.90;;;;;;;;;;4945479;29;20680;-63
2022/03/30 07:01:37;;;;;;;4.35;1.38;;;;;;;;;;4943982;29;20210;-63
2022/03/30 07:04:04;;;;;;;4.78;1.75;;;;;;;;;;4943104;29;20208;-63
2022/03/30 07:06:30;;;;;;;3.30;1.92;;;;;;;;;;4945428;29;20201;-63
2022/03/30 07:11:41;;;;;;;3.97;1.90;;;;;;;;;;4937249;29;20260;-63
2022/03/30 07:14:07;;;;;;;8.02;1.90;;;;;;;;;;4937451;29;20661;-63
2022/03/30 07:16:32;;;;;;;4.05;1.88;;;;;;;;;;4937228;29;20219;-63
2022/03/30 07:18:58;;;;;;;5.82;1.83;;;;;;;;;;4937273;29;20181;-63
2022/03/30 07:21:24;;;;;;;2.53;1.80;;;;;;;;;;4937206;29;20193;-63
2022/03/30 07:23:50;;;;;;;3.60;1.77;;;;;;;;;;4937132;29;20189;-63
2022/03/30 07:26:16;;;;;;;6.00;1.92;;;;;;;;;;4937647;29;20601;-63
2022/03/30 07:28:42;;;;;;;6.88;2.50;;;;;;;;;;4937106;29;20172;-63
2022/03/30 07:31:08;;;;;;;4.20;1.88;;;;;;;;;;4937003;29;20184;-63
2022/03/30 07:33:34;;;;;;;5.45;1.80;;;;;;;;;;4937172;29;20183;-63
2022/03/30 07:36:00;;;;;;;5.07;1.95;;;;;;;;;;4937111;29;20268;-63
2022/03/30 07:38:26;;;;;;;3.90;2.00;;;;;;;;;;4936956;29;20173;-63
2022/03/30 07:40:53;;;;;;;4.05;2.03;;;;;;;;;;4936944;29;20208;-63
2022/03/30 07:43:20;;;;;;;3.88;2.17;;;;;;;;;;4937005;29;20191;-63
2022/03/30 07:45:46;;;;;;;3.70;2.38;;;;;;;;;;4936946;29;20169;-63
2022/03/30 07:48:14;;;;;;;5.53;2.38;;;;;;;;;;4936911;29;20242;-63
2022/03/30 07:50:41;;;;;;;4.18;2.42;;;;;;;;;;4936651;29;20179;-63
2022/03/30 07:53:09;;;;;;;3.83;2.80;;;;;;;;;;4936801;29;20185;-63
2022/03/30 07:55:37;;;;;;;5.30;2.58;;;;;;;;;;4936688;29;20260;-63
2022/03/30 07:58:03;;;;;;;6.18;3.13;;;;;;;;;;4937477;29;20184;-63
2022/03/30 08:00:29;;;;;;;4.82;2.92;;;;;;;;;;4936973;29;20197;-63
2022/03/30 08:02:55;;;;;;;5.50;3.10;;;;;;;;;;4936988;29;20169;-64
2022/03/30 08:05:21;;;;;;;5.18;3.05;;;;;;;;;;4937199;29;20668;-63
2022/03/30 08:07:49;;;;;;;6.72;3.33;;;;;;;;;;4937030;29;20161;-61
2022/03/30 08:10:15;;;;;;;8.55;3.65;;;;;;;;;;4936650;29;20477;-62
2022/03/30 08:12:42;;;;;;;5.10;3.70;;;;;;;;;;4936703;29;20192;-63
2022/03/30 08:15:08;;;;;;;6.35;3.60;;;;;;;;;;4936217;29;20169;-64
2022/03/30 08:17:34;;;;;;;7.45;4.30;;;;;;;;;;4936552;29;20597;-63
2022/03/30 08:20:00;;;;;;;9.15;3.67;;;;;;;;;;4936880;29;20172;-63
2022/03/30 08:22:27;;;;;;;6.30;3.78;;;;;;;;;;4938826;29;20172;-62
2022/03/30 08:24:54;;;;;;;6.22;3.75;;;;;;;;;;4938259;29;20169;-63
2022/03/30 08:27:21;;;;;;;6.35;3.88;;;;;;;;;;4941011;29;20615;-64
2022/03/30 08:29:47;;;;;;;6.88;3.35;;;;;;;;;;4939874;29;20171;-63
2022/03/30 08:32:14;;;;;;;7.78;3.75;;;;;;;;;;4935531;29;20177;-63
2022/03/30 08:34:41;;;;;;;8.40;3.38;;;;;;;;;;4936602;29;20188;-63
2022/03/30 08:37:07;;;;;;;6.32;3.33;;;;;;;;;;4936967;29;20479;-63
2022/03/30 08:39:34;;;;;;;5.07;3.75;;;;;;;;;;4937009;29;20626;-63
2022/03/30 08:42:01;;;;;;;5.15;3.25;;;;;;;;;;4938270;29;20200;-63
2022/03/30 08:44:27;;;;;;;4.18;3.10;;;;;;;;;;4937587;29;20610;-63
2022/03/30 08:46:53;;;;;;;4.43;2.97;;;;;;;;;;4936164;29;20176;-64
2022/03/30 08:49:20;;;;;;;4.95;3.40;;;;;;;;;;4936400;29;20370;-62
2022/03/30 08:51:47;;;;;;;4.55;2.95;;;;;;;;;;4936189;29;20570;-63
2022/03/30 08:54:13;;;;;;;5.10;2.90;;;;;;;;;;4936604;29;20264;-63
2022/03/30 08:56:40;;;;;;;5.43;2.90;;;;;;;;;;4936811;29;20177;-62
2022/03/30 08:59:07;;;;;;;5.75;3.20;;;;;;;;;;4935807;29;20417;-63
2022/03/30 09:01:34;;;;;;;4.93;2.85;;;;;;;;;;4936166;29;20213;-63
2022/03/30 09:04:00;;;;;;;6.55;3.30;;;;;;;;;;4935877;29;20169;-63
2022/03/30 09:06:34;;;;;;;5.07;3.20;;;;;;;;;;4936063;29;20165;-63
2022/03/30 09:09:00;;;;;;;6.10;3.25;;;;;;;;;;4936070;29;20161;-63
2022/03/30 09:11:30;;;;;;;4.28;2.67;;;;;;;;;;4935920;29;20208;-63
2022/03/30 09:14:00;;;;;;;5.32;2.85;;;;;;;;;;4935988;29;20490;-62
2022/03/30 09:16:36;;;;;;;4.68;2.88;;;;;;;;;;4935788;29;20268;-63
2022/03/30 09:19:05;;;;;;;5.57;2.53;;;;;;;;;;4935670;29;20200;-62
2022/03/30 09:21:46;;;;;;;3.33;2.40;;;;;;;;;;4935673;29;20220;-63
2022/03/30 09:24:12;;;;;;;6.05;2.80;;;;;;;;;;4935679;29;20180;-63
2022/03/30 09:26:38;;;;;;;4.88;2.75;;;;;;;;;;4938481;29;20177;-64
2022/03/30 09:29:05;;;;;;;3.55;2.65;;;;;;;;;;4939455;29;20507;-63
2022/03/30 09:31:31;;;;;;;3.42;2.67;;;;;;;;;;4939495;29;20536;-63
2022/03/30 09:34:04;;;;;;;4.80;2.40;;;;;;;;;;4939289;29;20173;-62
2022/03/30 09:36:30;;;;;;;3.38;1.98;;;;;;;;;;4939745;29;20173;-62
2022/03/30 09:38:56;;;;;;;3.70;2.40;;;;;;;;;;4939447;29;20173;-63
2022/03/30 09:41:22;;;;;;;4.00;2.60;;;;;;;;;;4939608;29;20227;-63
2022/03/30 09:43:48;;;;;;;4.60;2.78;;;;;;;;;;4939057;29;20240;-63
2022/03/30 09:46:15;;;;;;;6.00;3.10;;;;;;;;;;4939561;29;20605;-63
2022/03/30 09:48:53;;;;;;;5.63;2.20;;;;;;;;;;4939211;29;20652;-63
2022/03/30 09:51:20;;;;;;;3.97;2.42;;;;;;;;;;4938038;29;20260;-63
2022/03/30 09:53:46;;;;;;;7.93;2.85;;;;;;;;;;4939090;29;20223;-63
2022/03/30 09:56:17;;;;;;;2.70;2.35;;;;;;;;;;4938706;29;20825;-63
2022/03/30 09:58:43;;;;;;;4.13;2.20;;;;;;;;;;4939102;29;20168;-63
2022/03/30 10:01:14;;;;;;;3.58;2.70;;;;;;;;;;4938778;29;20200;-62
2022/03/30 10:03:44;;;;;;;4.95;2.72;;;;;;;;;;4938723;29;20231;-62
2022/03/30 10:06:12;;;;;;;4.82;2.50;;;;;;;;;;4938587;29;20668;-63
2022/03/30 10:08:44;;;;;;;4.30;2.25;;;;;;;;;;4939076;29;20514;-63
2022/03/30 10:11:12;;;;;;;4.22;2.25;;;;;;;;;;4939240;29;20681;-63
2022/03/30 10:13:39;;;;;;;5.97;2.47;;;;;;;;;;4938657;29;20172;-63
2022/03/30 10:16:06;;;;;;;4.53;2.30;;;;;;;;;;4941695;29;20522;-64
2022/03/30 10:18:32;;;;;;;2.30;1.70;;;;;;;;;;4951200;29;20161;-63
2022/03/30 10:21:27;;;;;;;2.50;1.80;;;;;;;;;;4938739;29;20564;-63
2022/03/30 10:23:53;;;;;;;3.90;2.13;;;;;;;;;;4919993;29;20571;-62
2022/03/30 10:26:31;;;;;;;4.60;2.10;;;;;;;;;;4939004;29;20193;-62
2022/03/30 10:28:59;;;;;;;2.03;1.80;;;;;;;;;;4938267;29;20240;-63
2022/03/30 10:31:26;;;;;;;5.60;1.90;;;;;;;;;;4937977;29;20196;-63
2022/03/30 10:33:52;;;;;;;2.97;1.98;;;;;;;;;;4938687;29;20252;-63
2022/03/30 10:36:28;;;;;;;1.92;1.73;;;;;;;;;;4938048;29;20157;-63
2022/03/30 10:39:14;;;;;;;2.13;1.52;;;;;;;;;;4938284;29;20177;-63
2022/03/30 10:42:15;;;;;;;2.33;1.50;;;;;;;;;;4937946;29;20189;-63
2022/03/30 10:44:49;;;;;;;2.53;1.70;;;;;;;;;;4917071;29;20177;-63
2022/03/30 10:47:17;;;;;;;2.88;1.50;;;;;;;;;;4916669;29;20240;-63
2022/03/30 10:49:44;;;;;;;2.00;1.50;;;;;;;;;;4916707;29;20178;-63
2022/03/30 10:52:32;;;;;;;3.25;1.63;;;;;;;;;;4917213;29;20181;-63
2022/03/30 10:55:13;;;;;;;1.83;1.52;;;;;;;;;;4916764;29;20184;-63
2022/03/30 10:57:58;;;;;;;4.70;1.65;;;;;;;;;;4916930;29;20496;-63
2022/03/30 11:00:26;;;;;;;2.13;1.40;;;;;;;;;;4916620;29;20205;-63
2022/03/30 11:02:52;;;;;;;1.98;1.20;;;;;;;;;;4916759;29;20178;-63
2022/03/30 11:05:28;;;;;;;2.50;1.17;;;;;;;;;;4916702;29;20178;-63
2022/03/30 11:07:54;;;;;;;2.28;1.13;;;;;;;;;;4916662;29;20776;-63
2022/03/30 11:10:21;;;;;;;1.85;1.30;;;;;;;;;;4916469;29;20177;-63
2022/03/30 11:13:00;;;;;;;1.40;1.30;;;;;;;;;;4916718;29;20193;-63
2022/03/30 11:15:26;;;;;;;2.80;1.38;;;;;;;;;;4916380;29;20212;-63
2022/03/30 11:17:53;;;;;;;2.28;1.25;;;;;;;;;;4919670;29;20711;-63
2022/03/30 11:20:19;;;;;;;3.08;1.10;;;;;;;;;;4937293;29;20217;-63
2022/03/30 11:22:46;;;;;;;3.78;1.85;;;;;;;;;;4937535;29;20215;-63
2022/03/30 11:25:14;;;;;;;2.30;1.70;;;;;;;;;;4937715;29;20279;-63
2022/03/30 11:27:44;;;;;;;2.15;1.65;;;;;;;;;;4937142;29;20169;-63
2022/03/30 11:30:17;;;;;;;3.05;1.58;;;;;;;;;;4937053;29;20169;-63
2022/03/30 11:32:43;;;;;;;5.95;1.70;;;;;;;;;;4937043;29;20169;-63
2022/03/30 11:35:10;;;;;;;2.58;1.50;;;;;;;;;;4937247;29;20184;-63
2022/03/30 11:37:44;;;;;;;4.82;1.92;;;;;;;;;;4937606;29;20169;-63
2022/03/30 11:40:11;;;;;;;5.32;1.60;;;;;;;;;;4937030;29;20169;-63
2022/03/30 11:42:38;;;;;;;2.72;1.70;;;;;;;;;;4936816;29;20308;-63
2022/03/30 11:45:21;;;;;;;3.78;2.00;;;;;;;;;;4936874;29;20316;-63
2022/03/30 11:47:48;;;;;;;3.53;1.42;;;;;;;;;;4936394;29;20152;-63
2022/03/30 11:50:16;;;;;;;2.47;1.70;;;;;;;;;;4936522;29;20243;-63
2022/03/30 11:52:44;;;;;;;4.25;1.58;;;;;;;;;;4936814;29;20173;-63
2022/03/30 11:55:10;;;;;;;3.25;1.65;;;;;;;;;;4936876;29;20200;-63
2022/03/30 11:57:40;;;;;;;1.92;1.40;;;;;;;;;;4936614;29;20169;-63
2022/03/30 12:00:09;;;;;;;2.38;1.25;;;;;;;;;;4936467;29;20256;-63
2022/03/30 12:02:36;;;;;;;1.48;1.33;;;;;;;;;;4937173;29;20177;-63
2022/03/30 12:05:02;;;;;;;4.97;1.58;;;;;;;;;;4936821;29;20219;-63
2022/03/30 12:07:33;;;;;;;2.22;1.35;;;;;;;;;;4936650;29;20574;-63
2022/03/30 12:09:59;;;;;;;3.35;1.55;;;;;;;;;;4937030;29;20246;-63
2022/03/30 12:12:31;;;;;;;2.85;1.45;;;;;;;;;;4936878;29;20602;-63
2022/03/30 12:14:58;;;;;;;2.83;1.60;;;;;;;;;;4936619;29;20161;-63
2022/03/30 12:17:25;;;;;;;3.47;1.50;;;;;;;;;;4936288;29;20220;-63
2022/03/30 12:19:52;;;;;;;2.63;1.60;;;;;;;;;;4936903;29;20264;-63
2022/03/30 12:22:18;;;;;;;3.63;1.73;;;;;;;;;;4936588;29;20506;-63
2022/03/30 12:24:44;;;;;;;2.40;1.70;;;;;;;;;;4936763;29;20257;-63
2022/03/30 12:27:10;;;;;;;2.50;1.60;;;;;;;;;;4936463;29;20177;-63
2022/03/30 12:29:37;;;;;;;4.43;1.60;;;;;;;;;;4936772;29;20172;-63
2022/03/30 12:32:03;;;;;;;3.38;1.67;;;;;;;;;;4936363;29;20212;-63
2022/03/30 12:34:31;;;;;;;5.30;1.60;;;;;;;;;;4936358;29;20211;-63
2022/03/30 12:36:58;;;;;;;2.38;1.40;;;;;;;;;;4936469;29;20260;-63
2022/03/30 12:39:27;;;;;;;2.85;1.35;;;;;;;;;;4936650;29;20208;-63
2022/03/30 12:41:57;;;;;;;2.13;1.38;;;;;;;;;;4936236;29;20200;-63
2022/03/30 12:44:23;;;;;;;5.13;1.58;;;;;;;;;;4936795;29;20181;-63
2022/03/30 12:46:52;;;;;;;1.63;1.40;;;;;;;;;;4936362;29;20734;-63
2022/03/30 12:49:17;;;;;;;2.28;1.83;;;;;;;;;;4936504;29;20205;-63
2022/03/30 12:51:43;;;;;;;2.80;1.42;;;;;;;;;;4936241;29;20558;-63
2022/03/30 12:54:22;;;;;;;2.03;1.20;;;;;;;;;;4936551;29;20168;-63
2022/03/30 12:56:48;;;;;;;2.47;1.50;;;;;;;;;;4936687;29;20179;-62
2022/03/30 12:59:17;;;;;;;1.58;1.30;;;;;;;;;;4936797;29;20260;-62
2022/03/30 13:01:46;;;;;;;2.67;1.58;;;;;;;;;;4940096;29;20227;-63
2022/03/30 13:04:19;;;;;;;3.33;1.40;;;;;;;;;;4940096;29;20292;-63
2022/03/30 13:07:04;;;;;;;2.03;1.30;;;;;;;;;;4940028;29;20228;-63
2022/03/30 13:09:29;;;;;;;3.38;1.30;;;;;;;;;;4939829;29;20212;-63
2022/03/30 13:11:57;;;;;;;2.10;1.30;;;;;;;;;;4939819;29;20656;-64
2022/03/30 13:14:24;;;;;;;3.58;1.70;;;;;;;;;;4940909;29;20200;-64
2022/03/30 13:17:09;;;;;;;2.15;1.48;;;;;;;;;;4940241;29;20193;-64
2022/03/30 13:19:35;;;;;;;2.13;1.48;;;;;;;;;;4940731;29;20240;-63
2022/03/30 13:22:05;;;;;;;6.53;1.75;;;;;;;;;;4940018;29;20200;-63
2022/03/30 13:24:31;;;;;;;2.60;1.45;;;;;;;;;;4940109;29;20173;-63
2022/03/30 13:26:57;;;;;;;2.80;1.40;;;;;;;;;;4939821;29;20167;-63
2022/03/30 13:29:24;;;;;;;2.33;1.17;;;;;;;;;;4939952;29;20237;-63
2022/03/30 13:31:50;;;;;;;2.70;1.50;;;;;;;;;;4939821;29;20179;-63
2022/03/30 13:34:21;;;;;;;1.83;1.33;;;;;;;;;;4939828;29;20224;-63
2022/03/30 13:36:47;;;;;;;2.05;1.35;;;;;;;;;;4939986;29;20177;-63
2022/03/30 13:39:16;;;;;;;1.85;1.30;;;;;;;;;;4940277;29;20609;-64
2022/03/30 13:41:42;;;;;;;2.13;1.20;;;;;;;;;;4940400;29;20219;-64
2022/03/30 13:44:08;;;;;;;2.95;1.00;;;;;;;;;;4939963;29;20161;-63
2022/03/30 13:46:34;;;;;;;4.22;1.40;;;;;;;;;;4939693;29;20226;-63
2022/03/30 13:49:00;;;;;;;1.55;1.20;;;;;;;;;;4939764;29;20253;-62
2022/03/30 13:51:26;;;;;;;1.98;0.90;;;;;;;;;;4939011;29;20507;-63
2022/03/30 13:53:52;;;;;;;2.40;1.20;;;;;;;;;;4939597;29;20177;-62
2022/03/30 13:56:18;;;;;;;2.10;1.20;;;;;;;;;;4939237;29;20165;-61
2022/03/30 13:58:45;;;;;;;3.22;1.20;;;;;;;;;;4938915;29;20216;-63
2022/03/30 14:01:11;;;;;;;3.53;1.10;;;;;;;;;;4938605;29;20676;-61
2022/03/30 14:03:37;;;;;;;2.72;1.10;;;;;;;;;;4939161;29;20169;-64
2022/03/30 14:06:05;;;;;;;2.28;1.17;;;;;;;;;;4937748;29;20256;-64
2022/03/30 14:08:31;;;;;;;2.88;1.15;;;;;;;;;;4938826;29;20173;-62
2022/03/30 14:10:58;;;;;;;2.45;1.10;;;;;;;;;;4937915;29;20184;-62
2022/03/30 14:13:24;;;;;;;2.55;1.10;;;;;;;;;;4938943;29;20177;-62
2022/03/30 14:15:50;;;;;;;2.22;1.27;;;;;;;;;;4938501;29;20195;-62
2022/03/30 14:18:17;;;;;;;2.55;0.82;;;;;;;;;;4938467;29;20192;-62
2022/03/30 14:20:43;;;;;;;1.13;1.02;;;;;;;;;;4938503;29;20265;-62
2022/03/30 14:23:09;;;;;;;4.88;1.15;;;;;;;;;;4938490;29;20673;-62
2022/03/30 14:25:36;;;;;;;3.28;1.23;;;;;;;;;;4938241;29;20168;-63
2022/03/30 14:28:02;;;;;;;2.10;1.00;;;;;;;;;;4938533;29;20189;-63
2022/03/30 14:30:30;;;;;;;2.38;0.90;;;;;;;;;;4938114;29;20251;-63
2022/03/30 14:32:57;;;;;;;0.73;0.70;;;;;;;;;;4938588;29;20173;-63
2022/03/30 14:35:23;;;;;;;2.67;0.80;;;;;;;;;;4938503;29;20168;-63
2022/03/30 14:37:49;;;;;;;1.85;0.70;;;;;;;;;;4938286;29;20247;-63
2022/03/30 14:40:15;;;;;;;1.20;0.60;;;;;;;;;;4938156;29;20183;-63
2022/03/30 14:42:41;;;;;;;1.10;0.80;;;;;;;;;;4938001;29;20196;-63
2022/03/30 14:45:07;;;;;;;1.10;0.70;;;;;;;;;;4938021;29;20598;-63
2022/03/30 14:47:34;;;;;;;0.85;0.80;;;;;;;;;;4938167;29;20168;-63
2022/03/30 14:50:00;;;;;;;1.52;0.82;;;;;;;;;;4938751;29;20304;-61
2022/03/30 14:52:26;;;;;;;0.77;0.60;;;;;;;;;;4937881;29;20165;-62
2022/03/30 14:54:55;;;;;;;1.17;0.85;;;;;;;;;;4938239;29;20161;-62